createdAt,value
2024-03-05T00:01:04.730Z,97100.77
2024-03-05T00:03:43.642Z,97103.21
2024-03-05T00:06:12.432Z,97104.45
2024-03-05T00:08:40.973Z,97103.08
2024-03-05T00:11:09.135Z,97104.35
2024-03-05T00:13:37.538Z,97107.53
2024-03-05T00:16:06.005Z,97107.06
2024-03-05T00:18:34.359Z,97106.95
2024-03-05T00:21:03.265Z,97107.42
2024-03-05T00:23:31.440Z,97109.35
2024-03-05T00:25:59.803Z,97109.77
2024-03-05T00:28:28.180Z,97112.11
2024-03-05T00:30:56.617Z,97115.52
2024-03-05T00:33:32.734Z,97120.26
2024-03-05T00:36:00.981Z,97118.86
2024-03-05T00:38:33.665Z,97117.09
2024-03-05T00:41:02.986Z,97109.29
2024-03-05T00:43:31.316Z,97105.94
2024-03-05T00:46:01.715Z,97108.89
2024-03-05T00:48:30.468Z,97113.38
2024-03-05T00:50:59.402Z,97116.05
2024-03-05T00:53:27.739Z,97112.88
2024-03-05T00:55:56.988Z,97110.55
2024-03-05T00:58:25.266Z,97113.19
2024-03-05T01:00:55.594Z,97115.68
2024-03-05T01:03:23.800Z,97116.27
2024-03-05T01:05:52.117Z,97116.12
2024-03-05T01:08:20.575Z,97117.16
2024-03-05T01:10:48.884Z,97123.98
2024-03-05T01:13:20.800Z,97125.64
2024-03-05T01:15:49.329Z,97121.42
2024-03-05T01:18:17.605Z,97116.42
2024-03-05T01:20:45.885Z,97118.01
2024-03-05T01:23:14.723Z,97119.59
2024-03-05T01:25:42.919Z,97120.61
2024-03-05T01:28:11.466Z,97118.83
2024-03-05T01:30:41.576Z,97118.29
2024-03-05T01:33:10.942Z,97123.19
2024-03-05T01:35:39.474Z,97126.92
2024-03-05T01:38:08.570Z,97129.10
2024-03-05T01:40:37.001Z,97132.08
2024-03-05T01:43:05.370Z,97135.39
2024-03-05T01:45:34.646Z,97138.95
2024-03-05T01:48:03.125Z,97135.35
2024-03-05T01:50:36.413Z,97136.04
2024-03-05T01:53:07.370Z,97136.13
2024-03-05T01:55:38.656Z,97132.87
2024-03-05T01:58:10.054Z,97131.62
2024-03-05T02:00:38.731Z,97127.81
2024-03-05T02:03:07.442Z,97127.06
2024-03-05T02:05:35.693Z,97123.95
2024-03-05T02:08:04.426Z,97126.89
2024-03-05T02:10:33.400Z,97127.52
2024-03-05T02:13:02.303Z,97130.36
2024-03-05T02:15:30.718Z,97129.92
2024-03-05T02:17:58.989Z,97127.27
2024-03-05T02:20:28.880Z,97125.18
2024-03-05T02:22:57.952Z,97127.38
2024-03-05T02:25:26.409Z,97130.67
2024-03-05T02:27:54.797Z,97133.25
2024-03-05T02:30:23.377Z,97137.46
2024-03-05T02:32:52.788Z,97140.98
2024-03-05T02:35:21.950Z,97146.69
2024-03-05T02:37:50.889Z,97153.36
2024-03-05T02:40:20.208Z,97154.48
2024-03-05T02:42:48.523Z,97148.20
2024-03-05T02:45:17.049Z,97152.09
2024-03-05T02:47:45.525Z,97156.98
2024-03-05T02:50:14.262Z,97162.64
2024-03-05T02:52:42.897Z,97164.59
2024-03-05T02:55:11.979Z,97165.45
2024-03-05T02:57:42.586Z,97161.60
2024-03-05T03:00:21.682Z,97162.05
2024-03-05T03:02:50.489Z,97161.02
2024-03-05T03:05:23.223Z,97162.64
2024-03-05T03:07:54.992Z,97165.26
2024-03-05T03:10:24.195Z,97163.27
2024-03-05T03:12:52.814Z,97163.80
2024-03-05T03:15:22.104Z,97164.18
2024-03-05T03:17:51.166Z,97160.75
2024-03-05T03:20:20.149Z,97165.53
2024-03-05T03:22:48.670Z,97163.30
2024-03-05T03:25:17.297Z,97162.42
2024-03-05T03:27:45.958Z,97170.05
2024-03-05T03:30:19.641Z,97168.33
2024-03-05T03:32:49.289Z,97168.64
2024-03-05T03:35:21.478Z,97172.55
2024-03-05T03:37:50.064Z,97176.73
2024-03-05T03:40:22.744Z,97178.45
2024-03-05T03:42:52.829Z,97173.73
2024-03-05T03:45:21.594Z,97176.20
2024-03-05T03:47:50.222Z,97178.90
2024-03-05T03:50:18.826Z,97178.66
2024-03-05T03:52:47.273Z,97179.79
2024-03-05T03:55:17.030Z,97180.27
2024-03-05T03:57:47.608Z,97180.80
2024-03-05T04:00:18.632Z,97186.22
2024-03-05T04:02:48.240Z,97185.92
2024-03-05T04:05:17.426Z,97187.56
2024-03-05T04:07:45.699Z,97186.16
2024-03-05T04:10:14.095Z,97186.59
2024-03-05T04:12:42.479Z,97182.98
2024-03-05T04:15:13.962Z,97179.63
2024-03-05T04:17:42.735Z,97183.03
2024-03-05T04:20:11.864Z,97187.08
2024-03-05T04:22:41.054Z,97185.73
2024-03-05T04:25:09.999Z,97186.27
2024-03-05T04:27:43.547Z,97184.68
2024-03-05T04:30:14.662Z,97185.79
2024-03-05T04:32:58.432Z,97183.54
2024-03-05T04:35:30.196Z,97185.93
2024-03-05T04:37:59.102Z,97190.92
2024-03-05T04:40:28.168Z,97184.36
2024-03-05T04:42:56.988Z,97185.67
2024-03-05T04:45:26.720Z,97187.05
2024-03-05T04:47:56.003Z,97183.26
2024-03-05T04:50:24.367Z,97183.52
2024-03-05T04:52:54.496Z,97183.06
2024-03-05T04:55:24.293Z,97185.77
2024-03-05T04:57:52.904Z,97186.31
2024-03-05T05:00:21.987Z,97184.50
2024-03-05T05:02:53.077Z,97189.27
2024-03-05T05:05:27.130Z,97188.39
2024-03-05T05:07:58.024Z,97191.08
2024-03-05T05:10:27.435Z,97194.45
2024-03-05T05:12:55.772Z,97192.78
2024-03-05T05:15:25.237Z,97193.95
2024-03-05T05:17:54.192Z,97194.77
2024-03-05T05:20:23.208Z,97195.02
2024-03-05T05:22:51.976Z,97197.71
2024-03-05T05:25:25.223Z,97201.58
2024-03-05T05:27:53.953Z,97200.50
2024-03-05T05:30:25.153Z,97200.33
2024-03-05T05:32:55.027Z,97201.52
2024-03-05T05:35:23.313Z,97200.75
2024-03-05T05:37:51.543Z,97205.23
2024-03-05T05:40:21.490Z,97206.27
2024-03-05T05:42:51.527Z,97203.38
2024-03-05T05:45:23.255Z,97204.23
2024-03-05T05:47:56.092Z,97207.73
2024-03-05T05:50:32.957Z,97207.70
2024-03-05T05:53:01.595Z,97210.35
2024-03-05T05:55:30.134Z,97209.25
2024-03-05T05:57:58.982Z,97213.00
2024-03-05T06:00:37.979Z,97213.63
2024-03-05T06:03:10.163Z,97214.61
2024-03-05T06:05:40.245Z,97216.95
2024-03-05T06:08:12.699Z,97217.97
2024-03-05T06:10:45.227Z,97217.41
2024-03-05T06:13:14.789Z,97218.23
2024-03-05T06:15:44.612Z,97218.74
2024-03-05T06:18:12.887Z,97217.75
2024-03-05T06:20:41.438Z,97213.30
2024-03-05T06:23:09.970Z,97215.86
2024-03-05T06:25:38.876Z,97218.61
2024-03-05T06:28:11.045Z,97221.42
2024-03-05T06:30:39.425Z,97218.91
2024-03-05T06:33:10.350Z,97217.04
2024-03-05T06:35:39.695Z,97217.55
2024-03-05T06:38:09.848Z,97221.18
2024-03-05T06:40:38.170Z,97222.15
2024-03-05T06:43:14.045Z,97218.31
2024-03-05T06:45:44.432Z,97218.20
2024-03-05T06:48:17.704Z,97216.80
2024-03-05T06:50:53.572Z,97217.03
2024-03-05T06:53:41.012Z,97216.55
2024-03-05T06:56:27.881Z,97218.80
2024-03-05T06:58:56.469Z,97217.35
2024-03-05T07:01:28.259Z,97222.56
2024-03-05T07:03:57.946Z,97226.63
2024-03-05T07:06:26.278Z,97229.80
2024-03-05T07:08:56.663Z,97226.13
2024-03-05T07:11:28.419Z,97223.36
2024-03-05T07:13:57.017Z,97227.28
2024-03-05T07:16:25.898Z,97225.26
2024-03-05T07:18:55.125Z,97223.24
2024-03-05T07:21:25.824Z,97218.98
2024-03-05T07:23:57.331Z,97216.76
2024-03-05T07:26:26.094Z,97219.13
2024-03-05T07:28:54.799Z,97223.20
2024-03-05T07:31:25.447Z,97226.45
2024-03-05T07:33:55.865Z,97231.98
2024-03-05T07:36:24.268Z,97232.86
2024-03-05T07:38:54.194Z,97232.01
2024-03-05T07:41:29.873Z,97230.95
2024-03-05T07:44:05.265Z,97228.84
2024-03-05T07:46:35.464Z,97231.47
2024-03-05T07:49:05.621Z,97227.66
2024-03-05T07:51:41.312Z,97226.04
2024-03-05T07:54:14.586Z,97224.54
2024-03-05T07:56:44.590Z,97223.69
2024-03-05T07:59:13.199Z,97221.72
2024-03-05T08:01:42.261Z,97218.17
2024-03-05T08:04:10.853Z,97216.17
2024-03-05T08:06:39.394Z,97218.91
2024-03-05T08:09:08.807Z,97216.73
2024-03-05T08:11:37.148Z,97217.21
2024-03-05T08:14:09.303Z,97216.84
2024-03-05T08:16:40.339Z,97217.39
2024-03-05T08:19:09.201Z,97217.23
2024-03-05T08:21:37.501Z,97218.34
2024-03-05T08:24:06.755Z,97220.51
2024-03-05T08:26:35.933Z,97215.83
2024-03-05T08:29:05.412Z,97215.98
2024-03-05T08:31:33.944Z,97215.86
2024-03-05T08:34:05.785Z,97214.29
2024-03-05T08:36:38.472Z,97210.64
2024-03-05T08:39:17.115Z,97210.23
2024-03-05T08:41:48.234Z,97209.02
2024-03-05T08:44:17.244Z,97208.77
2024-03-05T08:46:45.950Z,97210.08
2024-03-05T08:49:14.357Z,97207.05
2024-03-05T08:51:42.642Z,97215.85
2024-03-05T08:54:11.073Z,97210.85
2024-03-05T08:56:43.495Z,97206.91
2024-03-05T08:59:11.797Z,97205.08
2024-03-05T09:01:40.555Z,97199.17
2024-03-05T09:04:11.158Z,97201.73
2024-03-05T09:06:39.827Z,97203.94
2024-03-05T09:09:08.287Z,97202.14
2024-03-05T09:11:36.437Z,97199.13
2024-03-05T09:14:05.135Z,97198.91
2024-03-05T09:16:34.128Z,97197.77
2024-03-05T09:19:02.661Z,97197.34
2024-03-05T09:21:33.609Z,97198.20
2024-03-05T09:24:02.566Z,97202.20
2024-03-05T09:26:31.199Z,97199.20
2024-03-05T09:28:59.757Z,97199.67
2024-03-05T09:31:28.252Z,97200.16
2024-03-05T09:33:57.022Z,97199.84
2024-03-05T09:36:25.541Z,97199.33
2024-03-05T09:38:54.174Z,97196.06
2024-03-05T09:41:23.666Z,97195.91
2024-03-05T09:43:55.486Z,97195.10
2024-03-05T09:46:27.373Z,97191.07
2024-03-05T09:49:01.590Z,97189.86
2024-03-05T09:51:37.992Z,97187.44
2024-03-05T09:54:11.731Z,97191.75
2024-03-05T09:56:47.645Z,97188.84
2024-03-05T09:59:17.748Z,97190.19
2024-03-05T10:01:47.836Z,97186.39
2024-03-05T10:04:17.575Z,97187.13
2024-03-05T10:06:47.760Z,97181.60
2024-03-05T10:09:21.692Z,97180.73
2024-03-05T10:11:52.423Z,97177.34
2024-03-05T10:14:24.027Z,97170.70
2024-03-05T10:17:00.738Z,97169.42
2024-03-05T10:19:29.002Z,97169.02
2024-03-05T10:22:12.146Z,97167.91
2024-03-05T10:24:40.462Z,97169.38
2024-03-05T10:27:11.025Z,97170.61
2024-03-05T10:29:39.537Z,97167.21
2024-03-05T10:32:12.861Z,97163.83
2024-03-05T10:34:44.959Z,97159.16
2024-03-05T10:37:13.513Z,97153.13
2024-03-05T10:39:43.709Z,97145.38
2024-03-05T10:42:14.075Z,97143.26
2024-03-05T10:44:43.611Z,97141.16
2024-03-05T10:47:14.199Z,97137.55
2024-03-05T10:49:46.533Z,97135.52
2024-03-05T10:52:16.661Z,97135.05
2024-03-05T10:54:46.716Z,97131.36
2024-03-05T10:57:14.843Z,97131.70
2024-03-05T10:59:48.354Z,97130.05
2024-03-05T11:02:19.207Z,97130.31
2024-03-05T11:04:51.234Z,97126.33
2024-03-05T11:07:20.891Z,97122.43
2024-03-05T11:09:50.227Z,97124.59
2024-03-05T11:12:20.539Z,97118.70
2024-03-05T11:14:51.044Z,97116.05
2024-03-05T11:17:19.581Z,97114.42
2024-03-05T11:19:49.221Z,97113.95
2024-03-05T11:22:23.916Z,97115.58
2024-03-05T11:25:03.114Z,97113.36
2024-03-05T11:27:32.402Z,97107.86
2024-03-05T11:30:18.101Z,97106.81
2024-03-05T11:32:46.745Z,97102.02
2024-03-05T11:35:19.505Z,97102.34
2024-03-05T11:37:56.059Z,97100.02
2024-03-05T11:40:36.854Z,97100.17
2024-03-05T11:43:08.548Z,97101.75
2024-03-05T11:45:50.873Z,97099.13
2024-03-05T11:48:20.935Z,97097.42
2024-03-05T11:50:54.135Z,97096.23
2024-03-05T11:53:24.207Z,97095.38
2024-03-05T11:55:53.817Z,97095.23
2024-03-05T11:58:27.247Z,97096.86
2024-03-05T12:01:03.836Z,97095.50
2024-03-05T12:03:32.241Z,97092.63
2024-03-05T12:06:01.846Z,97090.23
2024-03-05T12:08:34.026Z,97089.11
2024-03-05T12:11:03.998Z,97083.02
2024-03-05T12:13:33.078Z,97084.25
2024-03-05T12:16:15.723Z,97080.90
2024-03-05T12:18:44.065Z,97078.17
2024-03-05T12:21:12.460Z,97074.70
2024-03-05T12:23:43.173Z,97069.59
2024-03-05T12:26:13.531Z,97068.93
2024-03-05T12:28:42.608Z,97066.35
2024-03-05T12:31:11.886Z,97066.56
2024-03-05T12:33:40.656Z,97065.11
2024-03-05T12:36:14.190Z,97064.79
2024-03-05T12:38:42.706Z,97064.95
2024-03-05T12:41:11.227Z,97065.91
2024-03-05T12:43:39.504Z,97058.79
2024-03-05T12:46:07.839Z,97056.76
2024-03-05T12:48:36.477Z,97056.41
2024-03-05T12:51:05.004Z,97054.13
2024-03-05T12:53:33.310Z,97049.27
2024-03-05T12:56:03.161Z,97046.88
2024-03-05T12:58:42.058Z,97042.92
2024-03-05T13:01:16.790Z,97044.11
2024-03-05T13:03:45.849Z,97044.00
2024-03-05T13:06:14.293Z,97041.89
2024-03-05T13:08:42.857Z,97038.65
2024-03-05T13:11:11.634Z,97041.29
2024-03-05T13:13:40.289Z,97039.81
2024-03-05T13:16:09.035Z,97041.14
2024-03-05T13:18:37.862Z,97040.10
2024-03-05T13:21:07.419Z,97038.16
2024-03-05T13:23:36.301Z,97038.59
2024-03-05T13:26:04.697Z,97037.59
2024-03-05T13:28:32.924Z,97040.44
2024-03-05T13:31:01.251Z,97042.77
2024-03-05T13:33:29.947Z,97039.13
2024-03-05T13:35:58.361Z,97039.30
2024-03-05T13:38:26.803Z,97037.36
2024-03-05T13:40:55.129Z,97035.78
2024-03-05T13:43:26.369Z,97035.73
2024-03-05T13:45:56.451Z,97038.17
2024-03-05T13:48:24.858Z,97038.48
2024-03-05T13:50:53.484Z,97037.38
2024-03-05T13:53:22.713Z,97038.13
2024-03-05T13:55:56.750Z,97040.31
2024-03-05T13:58:25.327Z,97039.55
2024-03-05T14:00:53.897Z,97041.97
2024-03-05T14:03:22.399Z,97043.48
2024-03-05T14:05:50.803Z,97043.14
2024-03-05T14:08:19.231Z,97041.34
2024-03-05T14:10:47.905Z,97043.83
2024-03-05T14:13:18.991Z,97040.84
2024-03-05T14:15:50.541Z,97040.12
2024-03-05T14:18:20.997Z,97037.51
2024-03-05T14:20:50.286Z,97040.50
2024-03-05T14:23:18.783Z,97045.23
2024-03-05T14:25:49.474Z,97046.51
2024-03-05T14:28:17.935Z,97044.30
2024-03-05T14:30:46.163Z,97050.96
2024-03-05T14:33:14.780Z,97049.45
2024-03-05T14:35:43.091Z,97053.97
2024-03-05T14:38:17.799Z,97049.48
2024-03-05T14:40:46.168Z,97045.90
2024-03-05T14:43:14.639Z,97051.23
2024-03-05T14:45:42.911Z,97051.48
2024-03-05T14:48:11.387Z,97052.41
2024-03-05T14:50:39.739Z,97053.21
2024-03-05T14:53:08.683Z,97056.30
2024-03-05T14:55:37.299Z,97058.64
2024-03-05T14:58:06.697Z,97058.70
2024-03-05T15:00:34.910Z,97060.45
2024-03-05T15:03:03.327Z,97060.45
2024-03-05T15:05:32.124Z,97058.88
2024-03-05T15:08:00.372Z,97059.45
2024-03-05T15:10:29.927Z,97063.79
2024-03-05T15:12:58.755Z,97065.88
2024-03-05T15:15:27.021Z,97070.32
2024-03-05T15:17:55.932Z,97074.47
2024-03-05T15:20:25.097Z,97074.34
2024-03-05T15:22:53.715Z,97077.35
2024-03-05T15:25:22.824Z,97080.56
2024-03-05T15:30:22.538Z,97084.34
2024-03-05T15:32:52.470Z,97089.26
2024-03-05T15:35:23.190Z,97091.52
2024-03-05T15:37:52.825Z,97100.36
2024-03-05T15:40:23.757Z,97107.15
2024-03-05T15:42:57.460Z,97124.52
2024-03-05T15:45:28.614Z,97139.28
2024-03-05T15:47:58.068Z,97146.60
2024-03-05T15:50:30.927Z,97150.04
2024-03-05T15:53:04.395Z,97151.88
2024-03-05T15:55:40.139Z,97155.48
2024-03-05T15:58:08.940Z,97159.10
2024-03-05T16:00:39.524Z,97161.78
2024-03-05T16:03:13.850Z,97167.38
2024-03-05T16:05:55.719Z,97175.83
2024-03-05T16:08:32.904Z,97187.17
2024-03-05T16:11:01.516Z,97190.41
2024-03-05T16:13:31.538Z,97188.84
2024-03-05T16:16:00.026Z,97190.29
2024-03-05T16:18:28.388Z,97199.63
2024-03-05T16:21:01.470Z,97201.60
2024-03-05T16:23:29.907Z,97206.52
2024-03-05T16:25:58.457Z,97206.04
2024-03-05T16:28:27.063Z,97207.89
2024-03-05T16:30:55.470Z,97210.41
2024-03-05T16:33:26.234Z,97211.46
2024-03-05T16:35:54.807Z,97217.04
2024-03-05T16:38:23.153Z,97215.94
2024-03-05T16:40:54.099Z,97220.39
2024-03-05T16:43:22.432Z,97222.36
2024-03-05T16:45:51.964Z,97228.52
2024-03-05T16:48:20.261Z,97235.88
2024-03-05T16:50:48.665Z,97242.82
2024-03-05T16:53:16.842Z,97252.92
2024-03-05T16:55:45.168Z,97259.88
2024-03-05T16:58:16.402Z,97269.16
2024-03-05T17:00:58.160Z,97273.89
2024-03-05T17:03:30.770Z,97278.33
2024-03-05T17:06:00.839Z,97281.71
2024-03-05T17:08:30.886Z,97281.88
2024-03-05T17:11:00.326Z,97284.08
2024-03-05T17:13:31.285Z,97287.61
2024-03-05T17:16:05.023Z,97288.75
2024-03-05T17:18:35.875Z,97292.30
2024-03-05T17:21:05.781Z,97294.19
2024-03-05T17:23:36.075Z,97300.85
2024-03-05T17:26:05.908Z,97297.86
2024-03-05T17:28:34.733Z,97298.54
2024-03-05T17:31:04.975Z,97304.06
2024-03-05T17:33:33.444Z,97302.35
2024-03-05T17:36:03.193Z,97309.73
2024-03-05T17:38:33.168Z,97312.73
2024-03-05T17:41:02.637Z,97312.70
2024-03-05T17:43:31.619Z,97313.00
2024-03-05T17:46:00.883Z,97312.17
2024-03-05T17:48:29.515Z,97308.45
2024-03-05T17:51:02.022Z,97307.80
2024-03-05T17:53:30.634Z,97303.98
2024-03-05T17:55:59.076Z,97306.73
2024-03-05T17:58:27.461Z,97305.11
2024-03-05T18:00:55.829Z,97309.35
2024-03-05T18:03:24.683Z,97311.77
2024-03-05T18:05:54.456Z,97313.44
2024-03-05T18:08:23.072Z,97318.06
2024-03-05T18:10:52.093Z,97323.95
2024-03-05T18:13:22.284Z,97327.05
2024-03-05T18:15:52.587Z,97328.34
2024-03-05T18:18:21.143Z,97334.19
2024-03-05T18:20:50.343Z,97338.39
2024-03-05T18:23:19.030Z,97334.25
2024-03-05T18:25:49.740Z,97336.39
2024-03-05T18:28:21.754Z,97336.09
2024-03-05T18:30:51.332Z,97335.88
2024-03-05T18:33:20.290Z,97339.97
2024-03-05T18:35:48.758Z,97340.23
2024-03-05T18:38:24.937Z,97344.85
2024-03-05T18:41:01.500Z,97343.72
2024-03-05T18:43:31.781Z,97347.58
2024-03-05T18:46:01.722Z,97354.89
2024-03-05T18:48:31.249Z,97355.83
2024-03-05T18:51:00.217Z,97357.10
2024-03-05T18:53:39.234Z,97366.35
2024-03-05T18:56:13.803Z,97367.84
2024-03-05T18:58:43.938Z,97376.19
2024-03-05T19:01:15.867Z,97380.56
2024-03-05T19:03:45.297Z,97387.79
2024-03-05T19:06:13.706Z,97385.18
2024-03-05T19:08:41.963Z,97378.90
2024-03-05T19:11:12.605Z,97376.67
2024-03-05T19:13:43.010Z,97373.06
2024-03-05T19:16:11.865Z,97372.95
2024-03-05T19:18:40.464Z,97376.22
2024-03-05T19:21:09.219Z,97376.14
2024-03-05T19:23:38.180Z,97374.36
2024-03-05T19:26:06.724Z,97375.88
2024-03-05T19:28:37.749Z,97372.04
2024-03-05T19:31:08.667Z,97369.30
2024-03-05T19:33:36.837Z,97370.43
2024-03-05T19:36:06.860Z,97366.80
2024-03-05T19:38:35.300Z,97359.09
2024-03-05T19:41:04.117Z,97352.01
2024-03-05T19:43:37.362Z,97354.19
2024-03-05T19:46:08.856Z,97354.55
2024-03-05T19:48:37.738Z,97351.23
2024-03-05T19:51:07.866Z,97350.59
2024-03-05T19:53:36.224Z,97354.45
2024-03-05T19:56:05.093Z,97358.29
2024-03-05T19:58:33.417Z,97361.44
2024-03-05T20:01:02.025Z,97365.00
2024-03-05T20:03:30.426Z,97363.48
2024-03-05T20:05:59.118Z,97363.86
2024-03-05T20:08:29.921Z,97359.55
2024-03-05T20:10:58.797Z,97355.80
2024-03-05T20:13:27.217Z,97356.90
2024-03-05T20:15:59.136Z,97357.14
2024-03-05T20:18:28.753Z,97359.36
2024-03-05T20:20:58.058Z,97358.63
2024-03-05T20:23:27.646Z,97361.90
2024-03-05T20:25:57.084Z,97364.64
2024-03-05T20:28:25.533Z,97363.66
2024-03-05T20:30:56.239Z,97365.13
2024-03-05T20:33:25.143Z,97365.01
2024-03-05T20:35:53.738Z,97359.09
2024-03-05T20:38:25.646Z,97360.91
2024-03-05T20:40:53.845Z,97359.54
2024-03-05T20:43:22.119Z,97357.52
2024-03-05T20:45:50.281Z,97355.93
2024-03-05T20:48:18.458Z,97354.99
2024-03-05T20:50:47.859Z,97358.42
2024-03-05T20:53:16.954Z,97363.75
2024-03-05T20:55:45.555Z,97360.69
2024-03-05T20:58:14.324Z,97364.66
2024-03-05T21:00:44.323Z,97367.21
2024-03-05T21:03:12.811Z,97372.55
2024-03-05T21:05:43.758Z,97376.66
2024-03-05T21:08:12.671Z,97378.66
2024-03-05T21:10:42.369Z,97382.02
2024-03-05T21:13:10.531Z,97381.83
2024-03-05T21:15:38.788Z,97384.66
2024-03-05T21:18:11.080Z,97391.16
2024-03-05T21:20:39.535Z,97389.89
2024-03-05T21:23:10.115Z,97389.96
2024-03-05T21:25:50.157Z,97390.73
2024-03-05T21:28:26.973Z,97395.92
2024-03-05T21:30:56.104Z,97399.45
2024-03-05T21:33:24.582Z,97400.89
2024-03-05T21:35:53.022Z,97400.10
2024-03-05T21:38:21.286Z,97402.86
2024-03-05T21:40:49.654Z,97405.30
2024-03-05T21:43:18.725Z,97409.56
2024-03-05T21:45:46.989Z,97415.77
2024-03-05T21:48:15.617Z,97416.13
2024-03-05T21:50:43.896Z,97420.83
2024-03-05T21:53:12.340Z,97421.98
2024-03-05T21:55:41.148Z,97428.27
2024-03-05T21:58:09.533Z,97428.88
2024-03-05T22:00:38.028Z,97431.44
2024-03-05T22:03:06.326Z,97427.46
2024-03-05T22:05:34.598Z,97432.11
2024-03-05T22:08:04.567Z,97434.12
2024-03-05T22:10:33.015Z,97439.26
2024-03-05T22:13:01.689Z,97433.86
2024-03-05T22:15:29.960Z,97439.97
2024-03-05T22:17:58.623Z,97442.55
2024-03-05T22:20:27.035Z,97438.68
2024-03-05T22:22:55.254Z,97437.64
2024-03-05T22:25:23.502Z,97439.44
2024-03-05T22:27:52.045Z,97440.45
2024-03-05T22:30:20.756Z,97442.77
2024-03-05T22:32:50.048Z,97444.69
2024-03-05T22:35:19.545Z,97445.59
2024-03-05T22:37:50.230Z,97447.55
2024-03-05T22:40:23.236Z,97449.51
2024-03-05T22:42:51.914Z,97449.00
2024-03-05T22:45:23.094Z,97447.73
2024-03-05T22:47:51.355Z,97452.35
2024-03-05T22:50:19.711Z,97454.06
2024-03-05T22:52:48.086Z,97456.21
2024-03-05T22:55:16.404Z,97457.11
2024-03-05T22:57:44.678Z,97452.77
2024-03-05T23:00:33.589Z,97455.84
2024-03-05T23:03:04.402Z,97455.95
2024-03-05T23:05:33.436Z,97456.41
2024-03-05T23:08:02.374Z,97459.38
2024-03-05T23:10:31.641Z,97460.39
2024-03-05T23:13:00.364Z,97461.70
2024-03-05T23:15:28.804Z,97459.80
2024-03-05T23:17:57.162Z,97458.53
2024-03-05T23:20:25.438Z,97461.16
2024-03-05T23:22:54.081Z,97459.35
2024-03-05T23:25:23.258Z,97457.30
2024-03-05T23:27:51.428Z,97459.63
2024-03-05T23:30:20.018Z,97461.89
2024-03-05T23:32:51.038Z,97459.74
2024-03-05T23:35:19.708Z,97459.48
2024-03-05T23:37:48.151Z,97460.36
2024-03-05T23:40:17.408Z,97461.42
2024-03-05T23:42:46.232Z,97459.08
2024-03-05T23:45:15.199Z,97458.18
2024-03-05T23:47:44.060Z,97454.40
2024-03-05T23:50:13.906Z,97459.38
2024-03-05T23:52:42.561Z,97459.45
2024-03-05T23:55:10.767Z,97458.46
2024-03-05T23:57:39.063Z,97456.66
